createdAt,value
2022-12-11T00:00:32.882Z,84.16
2022-12-11T00:03:17.749Z,85.27
2022-12-11T00:06:09.954Z,85.30
2022-12-11T00:08:55.015Z,84.49
2022-12-11T00:11:38.443Z,84.06
2022-12-11T00:14:21.962Z,84.01
2022-12-11T00:17:05.645Z,82.82
2022-12-11T00:19:49.124Z,83.02
2022-12-11T00:22:32.661Z,82.94
2022-12-11T00:25:16.151Z,83.15
2022-12-11T00:27:59.635Z,83.93
2022-12-11T00:30:43.602Z,84.85
2022-12-11T00:33:27.698Z,85.51
2022-12-11T00:36:16.735Z,84.02
2022-12-11T00:39:02.803Z,84.12
2022-12-11T00:41:46.332Z,83.62
2022-12-11T00:44:29.759Z,84.33
2022-12-11T00:47:13.244Z,84.13
2022-12-11T00:49:56.660Z,84.08
2022-12-11T00:52:40.753Z,84.74
2022-12-11T00:55:25.418Z,83.69
2022-12-11T00:58:10.564Z,83.81
2022-12-11T01:00:54.247Z,83.38
2022-12-11T01:03:38.193Z,83.50
2022-12-11T01:06:26.009Z,83.54
2022-12-11T01:09:28.485Z,82.52
2022-12-11T01:12:11.940Z,82.55
2022-12-11T01:14:55.382Z,82.02
2022-12-11T01:17:38.852Z,81.26
2022-12-11T01:20:25.120Z,81.27
2022-12-11T01:23:13.085Z,82.30
2022-12-11T01:25:56.558Z,82.68
2022-12-11T01:28:41.379Z,83.43
2022-12-11T01:31:24.839Z,82.30
2022-12-11T01:34:08.332Z,83.64
2022-12-11T01:36:52.613Z,84.06
2022-12-11T01:39:38.575Z,82.97
2022-12-11T01:42:22.118Z,83.29
2022-12-11T01:45:29.890Z,83.28
2022-12-11T01:48:22.802Z,83.33
2022-12-11T01:51:06.273Z,83.31
2022-12-11T01:54:02.127Z,83.38
2022-12-11T01:56:50.059Z,82.97
2022-12-11T01:59:41.217Z,83.72
2022-12-11T02:02:31.506Z,83.24
2022-12-11T02:05:15.216Z,83.12
2022-12-11T02:08:02.392Z,83.76
2022-12-11T02:11:06.423Z,84.12
2022-12-11T02:14:32.499Z,83.73
2022-12-11T02:17:35.806Z,83.85
2022-12-11T02:20:58.255Z,83.23
2022-12-11T02:24:16.713Z,83.16
2022-12-11T02:27:23.449Z,83.95
2022-12-11T02:30:10.426Z,83.05
2022-12-11T02:32:58.991Z,82.83
2022-12-11T02:35:46.115Z,82.25
2022-12-11T02:38:37.603Z,82.36
2022-12-11T02:41:24.804Z,82.27
2022-12-11T02:44:14.037Z,82.73
2022-12-11T02:47:01.242Z,82.29
2022-12-11T02:49:50.278Z,82.93
2022-12-11T02:52:36.327Z,82.93
2022-12-11T02:55:20.943Z,83.02
2022-12-11T02:58:19.615Z,83.66
2022-12-11T03:01:03.423Z,83.88
2022-12-11T03:03:47.807Z,84.20
2022-12-11T03:06:44.427Z,84.08
2022-12-11T03:09:28.490Z,83.95
2022-12-11T03:12:31.435Z,83.40
2022-12-11T03:15:20.034Z,82.08
2022-12-11T03:18:55.131Z,82.15
2022-12-11T03:21:55.317Z,82.31
2022-12-11T03:24:59.646Z,84.07
2022-12-11T03:28:04.918Z,84.17
2022-12-11T03:30:53.608Z,84.39
2022-12-11T03:33:44.111Z,83.90
2022-12-11T03:36:36.402Z,84.26
2022-12-11T03:39:30.740Z,84.07
2022-12-11T03:42:17.589Z,84.68
2022-12-11T03:45:05.361Z,84.05
2022-12-11T03:47:52.409Z,84.20
2022-12-11T03:50:37.840Z,84.00
2022-12-11T03:53:23.410Z,83.40
2022-12-11T03:56:13.249Z,84.23
2022-12-11T03:58:56.834Z,84.94
2022-12-11T04:01:40.902Z,85.13
2022-12-11T04:04:24.529Z,84.73
2022-12-11T04:07:09.203Z,85.07
2022-12-11T04:09:52.706Z,84.96
2022-12-11T04:12:36.116Z,84.85
2022-12-11T04:15:19.948Z,84.41
2022-12-11T04:18:22.909Z,83.95
2022-12-11T04:21:24.817Z,84.08
2022-12-11T04:24:18.172Z,83.25
2022-12-11T04:27:01.658Z,84.13
2022-12-11T04:29:45.146Z,84.74
2022-12-11T04:32:28.705Z,84.25
2022-12-11T04:35:13.917Z,83.94
2022-12-11T04:37:57.746Z,84.68
2022-12-11T04:40:41.273Z,84.68
2022-12-11T04:43:24.858Z,84.35
2022-12-11T04:46:14.064Z,84.40
2022-12-11T04:48:58.151Z,83.97
2022-12-11T04:51:41.819Z,83.28
2022-12-11T04:54:25.506Z,83.84
2022-12-11T04:57:09.105Z,83.91
2022-12-11T04:59:52.587Z,83.40
2022-12-11T05:02:38.467Z,84.42
2022-12-11T05:05:21.938Z,84.18
2022-12-11T05:08:05.832Z,84.83
2022-12-11T05:11:08.239Z,85.04
2022-12-11T05:13:52.304Z,85.94
2022-12-11T05:16:35.835Z,85.81
2022-12-11T05:19:19.457Z,84.98
2022-12-11T05:22:02.894Z,85.39
2022-12-11T05:24:46.385Z,86.51
2022-12-11T05:27:30.202Z,87.98
2022-12-11T05:30:13.815Z,88.02
2022-12-11T05:32:57.326Z,88.02
2022-12-11T05:35:48.363Z,88.28
2022-12-11T05:38:31.867Z,87.97
2022-12-11T05:41:19.673Z,87.62
2022-12-11T05:44:03.146Z,87.23
2022-12-11T05:46:46.606Z,87.61
2022-12-11T05:49:31.141Z,87.74
2022-12-11T05:52:16.621Z,88.46
2022-12-11T05:55:00.150Z,88.45
2022-12-11T05:57:43.613Z,88.25
2022-12-11T06:00:31.510Z,88.56
2022-12-11T06:03:17.942Z,88.71
2022-12-11T06:06:06.188Z,88.91
2022-12-11T06:08:51.622Z,89.10
2022-12-11T06:11:35.982Z,89.55
2022-12-11T06:14:19.512Z,89.88
2022-12-11T06:17:03.167Z,90.21
2022-12-11T06:19:46.608Z,90.50
2022-12-11T06:22:30.709Z,90.74
2022-12-11T06:25:14.367Z,90.05
2022-12-11T06:27:58.669Z,89.35
2022-12-11T06:30:42.133Z,89.03
2022-12-11T06:33:25.736Z,89.00
2022-12-11T06:36:14.202Z,88.33
2022-12-11T06:38:57.802Z,87.45
2022-12-11T06:41:41.410Z,87.11
2022-12-11T06:44:25.163Z,86.34
2022-12-11T06:47:08.693Z,86.22
2022-12-11T06:49:52.219Z,86.50
2022-12-11T06:52:35.863Z,86.30
2022-12-11T06:55:19.369Z,85.27
2022-12-11T06:58:03.142Z,85.32
2022-12-11T07:00:46.734Z,85.18
2022-12-11T07:03:30.699Z,85.76
2022-12-11T07:06:15.968Z,85.71
2022-12-11T07:08:59.622Z,85.26
2022-12-11T07:11:43.354Z,84.42
2022-12-11T07:14:27.043Z,83.73
2022-12-11T07:17:10.579Z,83.76
2022-12-11T07:19:53.982Z,83.50
2022-12-11T07:22:43.110Z,83.99
2022-12-11T07:25:30.661Z,84.30
2022-12-11T07:28:16.850Z,84.64
2022-12-11T07:31:07.972Z,85.66
2022-12-11T07:34:02.028Z,86.21
2022-12-11T07:36:45.784Z,86.78
2022-12-11T07:39:29.216Z,87.08
2022-12-11T07:42:12.795Z,86.55
2022-12-11T07:44:56.235Z,86.65
2022-12-11T07:47:39.654Z,86.71
2022-12-11T07:50:23.102Z,86.86
2022-12-11T07:53:07.726Z,86.60
2022-12-11T07:55:51.478Z,86.04
2022-12-11T07:58:36.144Z,86.29
2022-12-11T08:01:26.873Z,86.09
2022-12-11T08:04:12.744Z,85.89
2022-12-11T08:06:57.696Z,85.75
2022-12-11T08:09:41.247Z,85.85
2022-12-11T08:12:24.673Z,85.81
2022-12-11T08:15:09.092Z,85.62
2022-12-11T08:17:52.851Z,85.55
2022-12-11T08:20:39.266Z,85.68
2022-12-11T08:23:22.703Z,85.83
2022-12-11T08:26:11.442Z,85.42
2022-12-11T08:28:55.459Z,85.33
2022-12-11T08:31:40.719Z,85.28
2022-12-11T08:34:24.344Z,85.28
2022-12-11T08:37:08.156Z,84.77
2022-12-11T08:39:51.730Z,84.48
2022-12-11T08:42:35.721Z,84.25
2022-12-11T08:45:19.178Z,83.97
2022-12-11T08:48:05.369Z,83.91
2022-12-11T08:50:54.036Z,83.95
2022-12-11T08:53:38.974Z,83.61
2022-12-11T08:56:23.787Z,83.67
2022-12-11T08:59:07.387Z,83.68
2022-12-11T09:01:50.959Z,83.57
2022-12-11T09:04:34.755Z,83.45
2022-12-11T09:07:18.391Z,83.62
2022-12-11T09:10:02.884Z,83.39
2022-12-11T09:12:46.627Z,83.27
2022-12-11T09:15:30.503Z,83.28
2022-12-11T09:18:14.027Z,83.48
2022-12-11T09:21:03.835Z,83.75
2022-12-11T09:23:48.411Z,83.19
2022-12-11T11:08:21.635Z,81.42
2022-12-11T11:11:05.403Z,81.32
2022-12-11T11:13:49.120Z,82.55
2022-12-11T11:16:38.912Z,81.61
2022-12-11T11:19:40.758Z,82.38
2022-12-11T11:22:24.377Z,82.53
2022-12-11T11:25:28.655Z,82.44
2022-12-11T11:28:26.403Z,81.92
2022-12-11T11:31:14.594Z,81.90
2022-12-11T11:34:06.349Z,81.65
2022-12-11T11:37:00.951Z,83.19
2022-12-11T11:39:48.037Z,82.07
2022-12-11T11:42:57.147Z,82.20
2022-12-11T11:46:13.366Z,82.75
2022-12-11T11:49:29.446Z,82.60
2022-12-11T11:52:29.251Z,82.37
2022-12-11T11:55:32.459Z,82.06
2022-12-11T11:58:27.227Z,81.86
2022-12-11T12:01:19.018Z,82.05
2022-12-11T12:04:05.420Z,81.77
2022-12-11T12:07:11.228Z,81.79
2022-12-11T12:10:31.847Z,82.68
2022-12-11T12:13:56.207Z,82.05
2022-12-11T12:17:01.165Z,83.07
2022-12-11T12:20:11.437Z,82.19
2022-12-11T12:23:37.086Z,84.14
2022-12-11T12:26:39.251Z,83.85
2022-12-11T12:30:01.299Z,83.77
2022-12-11T12:33:28.113Z,82.99
2022-12-11T12:36:44.236Z,82.85
2022-12-11T12:40:00.368Z,81.72
2022-12-11T12:43:06.930Z,80.92
2022-12-11T12:45:56.282Z,82.44
2022-12-11T12:48:40.115Z,82.59
2022-12-11T12:51:25.761Z,82.41
2022-12-11T12:54:17.365Z,81.28
2022-12-11T12:57:04.664Z,81.19
2022-12-11T12:59:55.345Z,80.79
2022-12-11T13:02:50.566Z,80.81
2022-12-11T13:05:35.239Z,81.13
2022-12-11T13:08:31.509Z,81.47
2022-12-11T13:11:19.563Z,82.75
2022-12-11T13:14:21.833Z,82.64
2022-12-11T13:17:25.585Z,82.17
2022-12-11T13:20:20.213Z,81.61
2022-12-11T13:23:06.567Z,82.13
2022-12-11T13:25:57.981Z,82.51
2022-12-11T13:28:41.272Z,82.50
2022-12-11T13:31:37.039Z,81.89
2022-12-11T13:34:24.327Z,82.03
2022-12-11T13:37:34.792Z,82.10
2022-12-11T13:40:27.684Z,81.48
2022-12-11T13:43:30.006Z,81.95
2022-12-11T13:46:19.318Z,81.68
2022-12-11T13:49:07.404Z,81.79
2022-12-11T13:52:00.128Z,80.55
2022-12-11T13:54:49.277Z,80.19
2022-12-11T13:57:32.825Z,82.24
2022-12-11T14:00:33.547Z,82.40
2022-12-11T14:03:18.652Z,82.31
2022-12-11T14:06:04.228Z,81.92
2022-12-11T14:08:53.252Z,82.36
2022-12-11T14:11:42.545Z,82.38
2022-12-11T14:14:44.847Z,82.31
2022-12-11T14:17:32.946Z,82.15
2022-12-11T14:20:30.796Z,82.19
2022-12-11T14:23:22.196Z,82.13
2022-12-11T14:26:25.741Z,82.88
2022-12-11T14:29:29.720Z,82.50
2022-12-11T14:32:30.665Z,82.78
2022-12-11T14:35:42.283Z,83.01
2022-12-11T14:38:43.216Z,82.66
2022-12-11T14:41:56.376Z,83.66
2022-12-11T14:44:53.646Z,83.75
2022-12-11T14:47:43.977Z,84.01
2022-12-11T14:50:39.338Z,83.56
2022-12-11T14:53:35.661Z,82.89
2022-12-11T14:56:27.647Z,82.96
2022-12-11T14:59:26.997Z,83.49
2022-12-11T15:02:39.919Z,84.71
2022-12-11T15:05:24.719Z,85.60
2022-12-11T15:08:11.986Z,84.03
2022-12-11T15:11:10.191Z,83.93
2022-12-11T15:14:02.826Z,85.12
2022-12-11T15:16:49.738Z,85.36
2022-12-11T15:19:36.549Z,85.02
2022-12-11T15:22:26.241Z,85.22
2022-12-11T15:25:23.810Z,84.34
2022-12-11T15:28:34.710Z,83.78
2022-12-11T15:31:28.510Z,84.02
2022-12-11T15:34:24.320Z,84.02
2022-12-11T15:37:36.181Z,84.23
2022-12-11T15:40:19.777Z,83.60
2022-12-11T15:43:03.526Z,83.85
2022-12-11T15:45:47.133Z,84.09
2022-12-11T15:48:30.607Z,84.29
2022-12-11T15:51:15.358Z,85.21
2022-12-11T15:53:58.791Z,84.77
2022-12-11T15:56:42.368Z,85.33
2022-12-11T15:59:25.874Z,85.88
2022-12-11T16:02:13.078Z,85.90
2022-12-11T16:32:46.591Z,86.78
2022-12-11T17:10:04.236Z,87.51
2022-12-11T17:12:47.729Z,87.17
2022-12-11T17:15:31.285Z,87.07
2022-12-11T17:18:15.607Z,86.50
2022-12-11T17:20:59.908Z,87.59
2022-12-11T17:23:43.859Z,87.41
2022-12-11T17:26:28.626Z,87.46
2022-12-11T17:29:13.036Z,87.07
2022-12-11T17:31:56.474Z,87.30
2022-12-11T17:34:39.931Z,87.95
2022-12-11T17:37:23.414Z,87.82
2022-12-11T17:40:07.570Z,87.72
2022-12-11T17:42:51.083Z,87.15
2022-12-11T17:45:34.890Z,87.42
2022-12-11T17:48:22.428Z,87.38
2022-12-11T17:51:09.647Z,87.22
2022-12-11T17:53:58.452Z,87.85
2022-12-11T17:56:41.947Z,87.44
2022-12-11T17:59:25.410Z,87.75
2022-12-11T18:02:10.609Z,88.40
2022-12-11T18:04:55.061Z,87.77
2022-12-11T18:07:39.112Z,87.95
2022-12-11T18:10:22.653Z,87.78
2022-12-11T18:13:06.232Z,87.81
2022-12-11T18:16:14.260Z,88.58
2022-12-11T18:18:58.191Z,88.10
2022-12-11T18:21:44.248Z,87.78
2022-12-11T18:24:31.784Z,88.67
2022-12-11T18:27:15.237Z,88.44
2022-12-11T18:29:58.691Z,88.42
2022-12-11T18:32:43.266Z,88.88
2022-12-11T18:35:26.802Z,89.32
2022-12-11T18:38:10.353Z,89.68
2022-12-11T18:40:53.875Z,89.42
2022-12-11T18:43:38.365Z,89.27
2022-12-11T18:46:22.396Z,89.82
2022-12-11T18:49:06.444Z,89.74
2022-12-11T18:51:49.979Z,89.48
2022-12-11T18:54:34.725Z,89.49
2022-12-11T18:57:18.750Z,89.75
2022-12-11T19:00:07.357Z,90.56
2022-12-11T19:02:52.627Z,90.89
2022-12-11T19:05:37.096Z,90.75
2022-12-11T19:08:21.041Z,90.84
2022-12-11T19:11:14.802Z,91.09
2022-12-11T19:13:59.254Z,91.19
2022-12-11T19:16:45.562Z,91.33
2022-12-11T19:19:28.996Z,91.93
2022-12-11T19:22:12.433Z,92.30
2022-12-11T19:24:55.938Z,92.45
2022-12-11T19:27:39.424Z,92.35
2022-12-11T19:30:23.961Z,91.84
2022-12-11T19:33:07.513Z,91.91
2022-12-11T19:36:02.181Z,91.75
2022-12-11T19:38:46.021Z,91.80
2022-12-11T19:41:30.832Z,92.21
2022-12-11T19:44:14.253Z,92.46
2022-12-11T19:46:57.748Z,92.99
2022-12-11T19:49:41.313Z,92.71
2022-12-11T19:52:24.957Z,92.53
2022-12-11T19:55:09.376Z,93.15
2022-12-11T19:57:53.205Z,92.70
2022-12-11T20:00:38.131Z,92.30
2022-12-11T20:03:22.121Z,91.41
2022-12-11T20:06:10.072Z,91.60
2022-12-11T20:08:53.697Z,91.58
2022-12-11T20:11:38.466Z,90.40
2022-12-11T20:14:26.242Z,90.88
2022-12-11T20:17:12.964Z,89.62
2022-12-11T20:19:57.595Z,90.24
2022-12-11T20:22:41.219Z,90.13
2022-12-11T20:25:26.609Z,90.74
2022-12-11T20:28:11.395Z,90.43
2022-12-11T20:30:54.877Z,90.33
2022-12-11T20:33:38.769Z,90.30
2022-12-11T20:36:24.655Z,90.25
2022-12-11T20:39:08.143Z,89.93
2022-12-11T20:41:51.716Z,89.75
2022-12-11T20:44:35.271Z,89.52
2022-12-11T20:47:19.871Z,89.82
2022-12-11T20:50:04.252Z,89.77
2022-12-11T20:52:47.946Z,89.19
2022-12-11T20:55:31.658Z,90.04
2022-12-11T20:58:15.420Z,90.33
2022-12-11T21:00:58.953Z,90.30
2022-12-11T21:03:43.110Z,90.62
2022-12-11T21:06:34.139Z,90.72
2022-12-11T21:09:17.933Z,90.61
2022-12-11T21:12:02.442Z,91.18
2022-12-11T21:14:46.356Z,91.85
2022-12-11T21:17:29.837Z,91.74
2022-12-11T21:20:13.523Z,91.80
2022-12-11T21:22:57.624Z,91.80
2022-12-11T21:25:41.362Z,92.07
2022-12-11T21:28:27.318Z,92.39
2022-12-11T21:31:19.390Z,92.74
2022-12-11T21:34:03.058Z,92.30
2022-12-11T21:36:47.416Z,93.02
2022-12-11T21:39:36.086Z,93.10
2022-12-11T21:42:23.234Z,92.67
2022-12-11T21:45:52.348Z,93.24
2022-12-11T21:48:11.443Z,93.09
2022-12-11T21:50:55.097Z,93.64
2022-12-11T21:53:38.579Z,93.68
2022-12-11T21:56:25.029Z,93.63
2022-12-11T21:59:08.532Z,93.20
2022-12-11T22:01:52.201Z,93.57
2022-12-11T22:04:37.051Z,93.14
2022-12-11T22:07:20.523Z,93.32
2022-12-11T22:10:05.263Z,93.87
2022-12-11T22:12:48.925Z,94.07
2022-12-11T22:15:32.598Z,94.22
2022-12-11T22:18:16.043Z,94.57
2022-12-11T22:20:59.815Z,94.96
2022-12-11T22:23:44.686Z,95.13
2022-12-11T22:26:29.298Z,94.48
2022-12-11T22:29:12.743Z,94.77
2022-12-11T22:31:56.479Z,94.47
2022-12-11T22:34:40.467Z,95.25
2022-12-11T22:37:25.139Z,95.01
2022-12-11T22:40:09.077Z,94.42
2022-12-11T22:42:53.889Z,94.36
2022-12-11T22:45:40.337Z,94.42
2022-12-11T22:48:27.363Z,93.44
2022-12-11T22:51:10.885Z,93.43
2022-12-11T22:53:54.386Z,92.67
2022-12-11T22:56:38.699Z,92.20
2022-12-11T22:59:22.584Z,92.65
2022-12-11T23:02:07.015Z,92.85
2022-12-11T23:04:50.540Z,93.86
2022-12-11T23:07:34.079Z,95.01
2022-12-11T23:10:17.645Z,95.41
2022-12-11T23:13:01.603Z,94.03
2022-12-11T23:15:45.035Z,93.47
2022-12-11T23:18:28.845Z,93.41
2022-12-11T23:21:12.751Z,94.20
2022-12-11T23:23:58.128Z,94.49
2022-12-11T23:26:42.207Z,94.33
2022-12-11T23:29:25.747Z,94.52
2022-12-11T23:32:09.198Z,94.29
2022-12-11T23:34:52.631Z,94.42
2022-12-11T23:37:36.083Z,94.83
2022-12-11T23:40:20.728Z,95.09
2022-12-11T23:43:04.143Z,95.29
2022-12-11T23:45:47.921Z,96.00
2022-12-11T23:48:31.479Z,96.28
2022-12-11T23:51:17.750Z,97.08
2022-12-11T23:54:01.188Z,97.04
2022-12-11T23:56:44.650Z,96.87
2022-12-11T23:59:28.134Z,97.17
